sensor_id;sensor_type;location;lat;lon;timestamp;P1;durP1;ratioP1;P2;durP2;ratioP2
9322;SDS011;4700;48.822;9.270;2023-05-13T00:00:02;194.77;;;107.60;;
9322;SDS011;4700;48.822;9.270;2023-05-13T00:02:48;205.33;;;111.80;;
9322;SDS011;4700;48.822;9.270;2023-05-13T00:05:34;205.13;;;113.97;;
9322;SDS011;4700;48.822;9.270;2023-05-13T00:08:21;202.23;;;118.07;;
9322;SDS011;4700;48.822;9.270;2023-05-13T00:11:07;195.77;;;107.70;;
9322;SDS011;4700;48.822;9.270;2023-05-13T00:13:52;194.30;;;110.17;;
9322;SDS011;4700;48.822;9.270;2023-05-13T00:16:40;192.90;;;108.57;;
9322;SDS011;4700;48.822;9.270;2023-05-13T00:19:25;190.53;;;108.43;;
9322;SDS011;4700;48.822;9.270;2023-05-13T00:22:14;204.03;;;142.83;;
9322;SDS011;4700;48.822;9.270;2023-05-13T00:25:00;197.77;;;113.70;;
9322;SDS011;4700;48.822;9.270;2023-05-13T00:27:46;192.33;;;110.77;;
9322;SDS011;4700;48.822;9.270;2023-05-13T00:30:32;200.63;;;114.23;;
9322;SDS011;4700;48.822;9.270;2023-05-13T00:33:19;197.63;;;112.73;;
9322;SDS011;4700;48.822;9.270;2023-05-13T00:36:05;198.10;;;107.60;;
9322;SDS011;4700;48.822;9.270;2023-05-13T00:38:53;200.00;;;106.53;;
9322;SDS011;4700;48.822;9.270;2023-05-13T00:41:39;194.53;;;104.93;;
9322;SDS011;4700;48.822;9.270;2023-05-13T00:44:25;191.20;;;103.43;;
9322;SDS011;4700;48.822;9.270;2023-05-13T00:47:11;194.70;;;105.47;;
9322;SDS011;4700;48.822;9.270;2023-05-13T00:49:58;195.37;;;102.57;;
9322;SDS011;4700;48.822;9.270;2023-05-13T00:52:44;201.50;;;105.80;;
9322;SDS011;4700;48.822;9.270;2023-05-13T00:55:31;202.67;;;106.33;;
9322;SDS011;4700;48.822;9.270;2023-05-13T00:58:17;201.63;;;106.33;;
9322;SDS011;4700;48.822;9.270;2023-05-13T01:01:05;202.73;;;107.90;;
9322;SDS011;4700;48.822;9.270;2023-05-13T01:04:01;208.43;;;105.83;;
9322;SDS011;4700;48.822;9.270;2023-05-13T01:06:58;204.83;;;102.47;;
9322;SDS011;4700;48.822;9.270;2023-05-13T01:09:54;204.23;;;100.87;;
9322;SDS011;4700;48.822;9.270;2023-05-13T01:12:45;210.93;;;104.80;;
9322;SDS011;4700;48.822;9.270;2023-05-13T01:15:32;201.20;;;99.30;;
9322;SDS011;4700;48.822;9.270;2023-05-13T01:18:27;213.63;;;101.67;;
9322;SDS011;4700;48.822;9.270;2023-05-13T01:21:23;206.90;;;99.30;;
9322;SDS011;4700;48.822;9.270;2023-05-13T01:24:10;209.17;;;99.13;;
9322;SDS011;4700;48.822;9.270;2023-05-13T01:26:56;207.43;;;100.07;;
9322;SDS011;4700;48.822;9.270;2023-05-13T01:29:43;213.43;;;100.63;;
9322;SDS011;4700;48.822;9.270;2023-05-13T01:32:29;208.73;;;99.20;;
9322;SDS011;4700;48.822;9.270;2023-05-13T01:35:25;226.70;;;102.10;;
9322;SDS011;4700;48.822;9.270;2023-05-13T01:38:14;246.40;;;113.30;;
9322;SDS011;4700;48.822;9.270;2023-05-13T01:41:01;237.57;;;104.60;;
9322;SDS011;4700;48.822;9.270;2023-05-13T01:43:46;254.33;;;107.63;;
9322;SDS011;4700;48.822;9.270;2023-05-13T01:46:33;254.50;;;107.03;;
9322;SDS011;4700;48.822;9.270;2023-05-13T01:49:19;243.63;;;103.70;;
9322;SDS011;4700;48.822;9.270;2023-05-13T01:52:06;246.90;;;106.80;;
9322;SDS011;4700;48.822;9.270;2023-05-13T01:54:54;249.83;;;106.23;;
9322;SDS011;4700;48.822;9.270;2023-05-13T01:57:40;255.33;;;106.60;;
9322;SDS011;4700;48.822;9.270;2023-05-13T02:00:26;253.13;;;106.33;;
9322;SDS011;4700;48.822;9.270;2023-05-13T02:03:13;252.00;;;105.33;;
9322;SDS011;4700;48.822;9.270;2023-05-13T02:06:01;250.83;;;105.17;;
9322;SDS011;4700;48.822;9.270;2023-05-13T02:08:56;254.30;;;103.30;;
9322;SDS011;4700;48.822;9.270;2023-05-13T02:11:44;252.00;;;106.70;;
9322;SDS011;4700;48.822;9.270;2023-05-13T02:14:30;256.33;;;109.90;;
9322;SDS011;4700;48.822;9.270;2023-05-13T02:17:16;248.60;;;106.40;;
9322;SDS011;4700;48.822;9.270;2023-05-13T02:20:03;248.13;;;106.37;;
9322;SDS011;4700;48.822;9.270;2023-05-13T02:22:50;266.10;;;114.17;;
9322;SDS011;4700;48.822;9.270;2023-05-13T02:25:42;257.03;;;106.87;;
9322;SDS011;4700;48.822;9.270;2023-05-13T02:28:30;253.67;;;107.50;;
9322;SDS011;4700;48.822;9.270;2023-05-13T02:31:16;247.70;;;105.47;;
9322;SDS011;4700;48.822;9.270;2023-05-13T02:34:02;248.33;;;104.90;;
9322;SDS011;4700;48.822;9.270;2023-05-13T02:36:48;255.80;;;108.10;;
9322;SDS011;4700;48.822;9.270;2023-05-13T02:39:35;243.70;;;105.73;;
9322;SDS011;4700;48.822;9.270;2023-05-13T02:42:21;240.33;;;105.10;;
9322;SDS011;4700;48.822;9.270;2023-05-13T02:45:12;245.20;;;105.47;;
9322;SDS011;4700;48.822;9.270;2023-05-13T02:47:58;246.17;;;104.60;;
9322;SDS011;4700;48.822;9.270;2023-05-13T02:50:44;239.17;;;104.10;;
9322;SDS011;4700;48.822;9.270;2023-05-13T02:53:32;245.00;;;106.40;;
9322;SDS011;4700;48.822;9.270;2023-05-13T02:56:19;245.03;;;105.23;;
9322;SDS011;4700;48.822;9.270;2023-05-13T02:59:04;254.53;;;107.00;;
9322;SDS011;4700;48.822;9.270;2023-05-13T03:01:55;253.83;;;106.80;;
9322;SDS011;4700;48.822;9.270;2023-05-13T03:04:44;248.37;;;105.90;;
9322;SDS011;4700;48.822;9.270;2023-05-13T03:07:30;257.13;;;108.03;;
9322;SDS011;4700;48.822;9.270;2023-05-13T03:10:19;260.23;;;108.33;;
9322;SDS011;4700;48.822;9.270;2023-05-13T03:13:05;253.83;;;107.70;;
9322;SDS011;4700;48.822;9.270;2023-05-13T03:15:53;256.13;;;106.30;;
9322;SDS011;4700;48.822;9.270;2023-05-13T03:18:43;259.77;;;107.77;;
9322;SDS011;4700;48.822;9.270;2023-05-13T03:21:29;252.73;;;105.40;;
9322;SDS011;4700;48.822;9.270;2023-05-13T03:24:16;262.03;;;109.13;;
9322;SDS011;4700;48.822;9.270;2023-05-13T03:27:02;252.23;;;104.43;;
9322;SDS011;4700;48.822;9.270;2023-05-13T03:29:48;253.03;;;105.33;;
9322;SDS011;4700;48.822;9.270;2023-05-13T03:32:33;257.23;;;105.90;;
9322;SDS011;4700;48.822;9.270;2023-05-13T03:35:21;264.37;;;108.57;;
9322;SDS011;4700;48.822;9.270;2023-05-13T03:38:07;267.93;;;108.33;;
9322;SDS011;4700;48.822;9.270;2023-05-13T03:40:53;261.37;;;107.87;;
9322;SDS011;4700;48.822;9.270;2023-05-13T03:43:39;266.43;;;111.13;;
9322;SDS011;4700;48.822;9.270;2023-05-13T03:46:25;256.90;;;104.57;;
9322;SDS011;4700;48.822;9.270;2023-05-13T03:49:11;258.23;;;109.50;;
9322;SDS011;4700;48.822;9.270;2023-05-13T03:51:59;252.77;;;105.73;;
9322;SDS011;4700;48.822;9.270;2023-05-13T03:54:45;248.07;;;104.73;;
9322;SDS011;4700;48.822;9.270;2023-05-13T03:57:31;254.03;;;106.50;;
9322;SDS011;4700;48.822;9.270;2023-05-13T04:00:17;252.13;;;105.77;;
9322;SDS011;4700;48.822;9.270;2023-05-13T04:03:03;249.93;;;107.23;;
9322;SDS011;4700;48.822;9.270;2023-05-13T04:05:50;255.83;;;107.13;;
9322;SDS011;4700;48.822;9.270;2023-05-13T04:08:37;254.77;;;107.10;;
9322;SDS011;4700;48.822;9.270;2023-05-13T04:11:23;257.13;;;108.83;;
9322;SDS011;4700;48.822;9.270;2023-05-13T04:14:10;258.43;;;107.30;;
9322;SDS011;4700;48.822;9.270;2023-05-13T04:16:56;254.43;;;104.93;;
9322;SDS011;4700;48.822;9.270;2023-05-13T04:19:42;252.33;;;107.43;;
9322;SDS011;4700;48.822;9.270;2023-05-13T04:22:28;257.53;;;107.60;;
9322;SDS011;4700;48.822;9.270;2023-05-13T04:25:15;256.93;;;106.43;;
9322;SDS011;4700;48.822;9.270;2023-05-13T04:28:01;248.70;;;104.93;;
9322;SDS011;4700;48.822;9.270;2023-05-13T04:30:48;250.77;;;110.83;;
9322;SDS011;4700;48.822;9.270;2023-05-13T04:33:37;245.23;;;106.03;;
9322;SDS011;4700;48.822;9.270;2023-05-13T04:36:23;247.03;;;106.10;;
9322;SDS011;4700;48.822;9.270;2023-05-13T04:39:09;253.43;;;107.23;;
9322;SDS011;4700;48.822;9.270;2023-05-13T04:42:00;251.30;;;105.70;;
9322;SDS011;4700;48.822;9.270;2023-05-13T04:44:46;250.73;;;106.53;;
9322;SDS011;4700;48.822;9.270;2023-05-13T04:47:32;257.00;;;108.83;;
9322;SDS011;4700;48.822;9.270;2023-05-13T04:50:17;253.73;;;107.20;;
9322;SDS011;4700;48.822;9.270;2023-05-13T04:53:03;245.07;;;107.30;;
9322;SDS011;4700;48.822;9.270;2023-05-13T04:55:52;254.53;;;109.60;;
9322;SDS011;4700;48.822;9.270;2023-05-13T04:58:44;252.87;;;107.60;;
9322;SDS011;4700;48.822;9.270;2023-05-13T05:01:31;260.10;;;113.03;;
9322;SDS011;4700;48.822;9.270;2023-05-13T05:04:16;245.93;;;107.97;;
9322;SDS011;4700;48.822;9.270;2023-05-13T05:07:03;256.83;;;113.00;;
9322;SDS011;4700;48.822;9.270;2023-05-13T05:09:49;258.33;;;109.97;;
9322;SDS011;4700;48.822;9.270;2023-05-13T05:12:34;248.90;;;109.87;;
9322;SDS011;4700;48.822;9.270;2023-05-13T05:15:22;249.23;;;109.70;;
9322;SDS011;4700;48.822;9.270;2023-05-13T05:18:08;257.47;;;113.17;;
9322;SDS011;4700;48.822;9.270;2023-05-13T05:20:53;263.27;;;114.60;;
9322;SDS011;4700;48.822;9.270;2023-05-13T05:23:39;248.83;;;110.57;;
9322;SDS011;4700;48.822;9.270;2023-05-13T05:26:25;253.00;;;111.17;;
9322;SDS011;4700;48.822;9.270;2023-05-13T05:29:11;253.03;;;111.63;;
9322;SDS011;4700;48.822;9.270;2023-05-13T05:31:58;256.13;;;110.70;;
9322;SDS011;4700;48.822;9.270;2023-05-13T05:34:44;256.37;;;111.73;;
9322;SDS011;4700;48.822;9.270;2023-05-13T05:37:30;256.27;;;110.67;;
9322;SDS011;4700;48.822;9.270;2023-05-13T05:40:16;258.60;;;112.10;;
9322;SDS011;4700;48.822;9.270;2023-05-13T05:43:02;253.03;;;110.03;;
9322;SDS011;4700;48.822;9.270;2023-05-13T05:45:48;255.43;;;109.53;;
9322;SDS011;4700;48.822;9.270;2023-05-13T05:48:35;259.53;;;111.27;;
9322;SDS011;4700;48.822;9.270;2023-05-13T05:51:21;248.70;;;109.93;;
9322;SDS011;4700;48.822;9.270;2023-05-13T05:54:07;265.47;;;115.87;;
9322;SDS011;4700;48.822;9.270;2023-05-13T05:56:53;258.70;;;110.40;;
9322;SDS011;4700;48.822;9.270;2023-05-13T05:59:39;264.43;;;114.43;;
9322;SDS011;4700;48.822;9.270;2023-05-13T06:02:25;256.83;;;111.57;;
9322;SDS011;4700;48.822;9.270;2023-05-13T06:05:12;264.13;;;114.30;;
9322;SDS011;4700;48.822;9.270;2023-05-13T06:07:58;270.43;;;114.23;;
9322;SDS011;4700;48.822;9.270;2023-05-13T06:10:44;277.87;;;118.47;;
9322;SDS011;4700;48.822;9.270;2023-05-13T06:13:29;270.47;;;116.80;;
9322;SDS011;4700;48.822;9.270;2023-05-13T06:16:15;274.17;;;118.77;;
9322;SDS011;4700;48.822;9.270;2023-05-13T06:19:01;276.23;;;119.67;;
9322;SDS011;4700;48.822;9.270;2023-05-13T06:21:48;275.73;;;117.17;;
9322;SDS011;4700;48.822;9.270;2023-05-13T06:24:33;278.03;;;120.10;;
9322;SDS011;4700;48.822;9.270;2023-05-13T06:27:19;282.57;;;122.37;;
9322;SDS011;4700;48.822;9.270;2023-05-13T06:30:05;274.63;;;119.20;;
9322;SDS011;4700;48.822;9.270;2023-05-13T06:32:51;275.73;;;120.13;;
9322;SDS011;4700;48.822;9.270;2023-05-13T06:35:37;276.30;;;116.73;;
9322;SDS011;4700;48.822;9.270;2023-05-13T06:38:25;271.70;;;117.63;;
9322;SDS011;4700;48.822;9.270;2023-05-13T06:41:10;260.17;;;115.30;;
9322;SDS011;4700;48.822;9.270;2023-05-13T06:43:56;256.90;;;113.93;;
9322;SDS011;4700;48.822;9.270;2023-05-13T06:46:41;248.93;;;117.87;;
9322;SDS011;4700;48.822;9.270;2023-05-13T06:49:27;247.73;;;115.97;;
9322;SDS011;4700;48.822;9.270;2023-05-13T06:52:13;270.03;;;122.17;;
9322;SDS011;4700;48.822;9.270;2023-05-13T06:55:00;246.63;;;115.20;;
9322;SDS011;4700;48.822;9.270;2023-05-13T06:57:46;249.37;;;119.80;;
9322;SDS011;4700;48.822;9.270;2023-05-13T07:00:35;259.97;;;121.93;;
9322;SDS011;4700;48.822;9.270;2023-05-13T07:03:22;253.77;;;121.67;;
9322;SDS011;4700;48.822;9.270;2023-05-13T07:06:08;248.07;;;117.10;;
9322;SDS011;4700;48.822;9.270;2023-05-13T07:08:55;253.20;;;120.10;;
9322;SDS011;4700;48.822;9.270;2023-05-13T07:11:42;243.37;;;121.47;;
9322;SDS011;4700;48.822;9.270;2023-05-13T07:14:28;241.00;;;120.80;;
9322;SDS011;4700;48.822;9.270;2023-05-13T07:17:13;303.07;;;146.57;;
9322;SDS011;4700;48.822;9.270;2023-05-13T07:20:01;253.13;;;133.73;;
9322;SDS011;4700;48.822;9.270;2023-05-13T07:22:46;245.23;;;128.93;;
9322;SDS011;4700;48.822;9.270;2023-05-13T07:25:32;240.77;;;123.30;;
9322;SDS011;4700;48.822;9.270;2023-05-13T07:28:19;232.90;;;121.33;;
9322;SDS011;4700;48.822;9.270;2023-05-13T07:31:05;244.23;;;126.90;;
9322;SDS011;4700;48.822;9.270;2023-05-13T07:33:51;246.93;;;132.33;;
9322;SDS011;4700;48.822;9.270;2023-05-13T07:36:37;236.63;;;124.27;;
9322;SDS011;4700;48.822;9.270;2023-05-13T07:39:23;246.07;;;129.57;;
9322;SDS011;4700;48.822;9.270;2023-05-13T07:42:09;251.77;;;132.33;;
9322;SDS011;4700;48.822;9.270;2023-05-13T07:44:56;261.03;;;132.33;;
9322;SDS011;4700;48.822;9.270;2023-05-13T07:47:42;253.53;;;125.73;;
9322;SDS011;4700;48.822;9.270;2023-05-13T07:50:28;260.13;;;134.53;;
9322;SDS011;4700;48.822;9.270;2023-05-13T07:53:14;242.37;;;128.47;;
9322;SDS011;4700;48.822;9.270;2023-05-13T07:56:00;244.37;;;126.83;;
9322;SDS011;4700;48.822;9.270;2023-05-13T07:58:46;257.83;;;135.60;;
9322;SDS011;4700;48.822;9.270;2023-05-13T08:01:34;255.77;;;131.70;;
9322;SDS011;4700;48.822;9.270;2023-05-13T08:04:20;258.67;;;133.93;;
9322;SDS011;4700;48.822;9.270;2023-05-13T08:07:07;257.00;;;135.57;;
9322;SDS011;4700;48.822;9.270;2023-05-13T08:09:54;260.47;;;139.20;;
9322;SDS011;4700;48.822;9.270;2023-05-13T08:12:40;266.73;;;137.70;;
9322;SDS011;4700;48.822;9.270;2023-05-13T08:15:26;253.93;;;133.13;;
9322;SDS011;4700;48.822;9.270;2023-05-13T08:18:13;250.67;;;127.57;;
9322;SDS011;4700;48.822;9.270;2023-05-13T08:20:59;256.77;;;140.70;;
9322;SDS011;4700;48.822;9.270;2023-05-13T08:23:45;266.37;;;159.70;;
9322;SDS011;4700;48.822;9.270;2023-05-13T08:26:30;248.77;;;145.60;;
9322;SDS011;4700;48.822;9.270;2023-05-13T08:29:16;239.53;;;135.30;;
9322;SDS011;4700;48.822;9.270;2023-05-13T08:32:02;237.43;;;136.33;;
9322;SDS011;4700;48.822;9.270;2023-05-13T08:34:50;229.30;;;130.60;;
9322;SDS011;4700;48.822;9.270;2023-05-13T08:37:36;238.07;;;139.13;;
9322;SDS011;4700;48.822;9.270;2023-05-13T08:40:22;241.40;;;135.03;;
9322;SDS011;4700;48.822;9.270;2023-05-13T08:43:08;229.40;;;130.60;;
9322;SDS011;4700;48.822;9.270;2023-05-13T08:45:59;233.60;;;137.93;;
9322;SDS011;4700;48.822;9.270;2023-05-13T08:48:47;233.33;;;138.03;;
9322;SDS011;4700;48.822;9.270;2023-05-13T08:51:35;224.97;;;131.70;;
9322;SDS011;4700;48.822;9.270;2023-05-13T08:54:20;230.50;;;134.27;;
9322;SDS011;4700;48.822;9.270;2023-05-13T08:57:07;243.47;;;151.67;;
9322;SDS011;4700;48.822;9.270;2023-05-13T08:59:53;221.83;;;130.90;;
9322;SDS011;4700;48.822;9.270;2023-05-13T09:02:39;221.83;;;133.20;;
9322;SDS011;4700;48.822;9.270;2023-05-13T09:05:26;229.97;;;139.53;;
9322;SDS011;4700;48.822;9.270;2023-05-13T09:08:13;225.33;;;133.43;;
9322;SDS011;4700;48.822;9.270;2023-05-13T09:10:58;232.70;;;133.13;;
9322;SDS011;4700;48.822;9.270;2023-05-13T09:13:45;224.43;;;139.00;;
9322;SDS011;4700;48.822;9.270;2023-05-13T09:16:40;238.80;;;139.83;;
9322;SDS011;4700;48.822;9.270;2023-05-13T09:19:26;228.43;;;136.87;;
9322;SDS011;4700;48.822;9.270;2023-05-13T09:22:15;229.43;;;147.30;;
9322;SDS011;4700;48.822;9.270;2023-05-13T09:25:03;228.63;;;139.20;;
9322;SDS011;4700;48.822;9.270;2023-05-13T09:27:50;241.27;;;150.43;;
9322;SDS011;4700;48.822;9.270;2023-05-13T09:30:38;251.67;;;154.17;;
9322;SDS011;4700;48.822;9.270;2023-05-13T09:33:28;239.07;;;144.37;;
9322;SDS011;4700;48.822;9.270;2023-05-13T09:36:14;243.37;;;149.60;;
9322;SDS011;4700;48.822;9.270;2023-05-13T09:39:00;251.50;;;149.80;;
9322;SDS011;4700;48.822;9.270;2023-05-13T09:41:48;239.13;;;144.07;;
9322;SDS011;4700;48.822;9.270;2023-05-13T09:44:34;239.47;;;144.20;;
9322;SDS011;4700;48.822;9.270;2023-05-13T09:47:20;229.43;;;140.60;;
9322;SDS011;4700;48.822;9.270;2023-05-13T09:50:09;222.30;;;138.27;;
9322;SDS011;4700;48.822;9.270;2023-05-13T09:52:56;227.67;;;145.23;;
9322;SDS011;4700;48.822;9.270;2023-05-13T09:55:43;231.83;;;152.73;;
9322;SDS011;4700;48.822;9.270;2023-05-13T09:58:31;217.70;;;138.57;;
9322;SDS011;4700;48.822;9.270;2023-05-13T10:01:18;214.80;;;135.90;;
9322;SDS011;4700;48.822;9.270;2023-05-13T10:04:04;224.43;;;147.23;;
9322;SDS011;4700;48.822;9.270;2023-05-13T10:06:51;214.80;;;146.87;;
9322;SDS011;4700;48.822;9.270;2023-05-13T10:09:37;205.50;;;142.17;;
9322;SDS011;4700;48.822;9.270;2023-05-13T10:12:27;222.70;;;151.67;;
9322;SDS011;4700;48.822;9.270;2023-05-13T10:15:18;230.27;;;158.93;;
9322;SDS011;4700;48.822;9.270;2023-05-13T10:18:04;218.37;;;144.90;;
9322;SDS011;4700;48.822;9.270;2023-05-13T10:20:50;232.47;;;161.77;;
9322;SDS011;4700;48.822;9.270;2023-05-13T10:23:36;230.17;;;154.73;;
9322;SDS011;4700;48.822;9.270;2023-05-13T10:26:23;226.60;;;162.27;;
9322;SDS011;4700;48.822;9.270;2023-05-13T10:29:10;225.73;;;153.53;;
9322;SDS011;4700;48.822;9.270;2023-05-13T10:31:58;227.73;;;148.30;;
9322;SDS011;4700;48.822;9.270;2023-05-13T10:34:44;229.40;;;147.77;;
9322;SDS011;4700;48.822;9.270;2023-05-13T10:40:52;242.17;;;140.77;;
9322;SDS011;4700;48.822;9.270;2023-05-13T10:43:54;248.40;;;144.87;;
9322;SDS011;4700;48.822;9.270;2023-05-13T10:46:41;247.57;;;145.23;;
9322;SDS011;4700;48.822;9.270;2023-05-13T10:49:32;243.83;;;148.37;;
9322;SDS011;4700;48.822;9.270;2023-05-13T10:52:18;236.37;;;144.37;;
9322;SDS011;4700;48.822;9.270;2023-05-13T10:55:05;239.73;;;148.40;;
9322;SDS011;4700;48.822;9.270;2023-05-13T10:58:03;231.37;;;151.90;;
9322;SDS011;4700;48.822;9.270;2023-05-13T11:01:11;232.50;;;146.17;;
9322;SDS011;4700;48.822;9.270;2023-05-13T11:03:58;241.10;;;161.23;;
9322;SDS011;4700;48.822;9.270;2023-05-13T11:06:46;229.00;;;153.50;;
9322;SDS011;4700;48.822;9.270;2023-05-13T11:09:36;223.33;;;160.00;;
9322;SDS011;4700;48.822;9.270;2023-05-13T11:12:22;219.63;;;164.50;;
9322;SDS011;4700;48.822;9.270;2023-05-13T11:15:19;219.93;;;157.83;;
9322;SDS011;4700;48.822;9.270;2023-05-13T11:18:06;4.40;;;3.90;;
9322;SDS011;4700;48.822;9.270;2023-05-13T11:20:52;113.03;;;107.73;;
9322;SDS011;4700;48.822;9.270;2023-05-13T11:23:52;256.77;;;238.13;;
9322;SDS011;4700;48.822;9.270;2023-05-13T11:26:42;269.17;;;250.87;;
9322;SDS011;4700;48.822;9.270;2023-05-13T11:29:30;225.97;;;202.97;;
9322;SDS011;4700;48.822;9.270;2023-05-13T11:35:35;240.30;;;160.03;;
9322;SDS011;4700;48.822;9.270;2023-05-13T11:38:22;237.17;;;177.43;;
9322;SDS011;4700;48.822;9.270;2023-05-13T11:41:10;243.97;;;183.17;;
9322;SDS011;4700;48.822;9.270;2023-05-13T11:43:57;231.33;;;170.20;;
9322;SDS011;4700;48.822;9.270;2023-05-13T11:46:52;230.97;;;171.93;;
9322;SDS011;4700;48.822;9.270;2023-05-13T11:49:40;236.40;;;174.90;;
9322;SDS011;4700;48.822;9.270;2023-05-13T11:52:26;229.90;;;181.53;;
9322;SDS011;4700;48.822;9.270;2023-05-13T11:55:12;227.03;;;173.63;;
9322;SDS011;4700;48.822;9.270;2023-05-13T11:58:12;229.70;;;155.43;;
9322;SDS011;4700;48.822;9.270;2023-05-13T12:00:58;226.90;;;159.47;;
9322;SDS011;4700;48.822;9.270;2023-05-13T12:03:44;224.07;;;152.40;;
9322;SDS011;4700;48.822;9.270;2023-05-13T12:06:29;218.23;;;157.73;;
9322;SDS011;4700;48.822;9.270;2023-05-13T12:09:15;226.73;;;157.97;;
9322;SDS011;4700;48.822;9.270;2023-05-13T12:12:05;222.97;;;147.87;;
9322;SDS011;4700;48.822;9.270;2023-05-13T12:14:54;229.23;;;156.50;;
9322;SDS011;4700;48.822;9.270;2023-05-13T12:17:40;215.73;;;144.93;;
9322;SDS011;4700;48.822;9.270;2023-05-13T12:20:26;224.50;;;149.37;;
9322;SDS011;4700;48.822;9.270;2023-05-13T12:23:11;225.60;;;171.60;;
9322;SDS011;4700;48.822;9.270;2023-05-13T12:25:58;221.97;;;153.60;;
9322;SDS011;4700;48.822;9.270;2023-05-13T12:28:43;232.93;;;154.37;;
9322;SDS011;4700;48.822;9.270;2023-05-13T12:31:31;238.40;;;158.10;;
9322;SDS011;4700;48.822;9.270;2023-05-13T12:34:28;233.67;;;159.60;;
9322;SDS011;4700;48.822;9.270;2023-05-13T12:37:14;237.83;;;150.97;;
9322;SDS011;4700;48.822;9.270;2023-05-13T12:40:10;237.83;;;151.87;;
9322;SDS011;4700;48.822;9.270;2023-05-13T12:42:57;242.63;;;147.50;;
9322;SDS011;4700;48.822;9.270;2023-05-13T12:45:44;238.27;;;149.83;;
9322;SDS011;4700;48.822;9.270;2023-05-13T12:48:33;241.97;;;167.77;;
9322;SDS011;4700;48.822;9.270;2023-05-13T12:51:18;242.73;;;162.23;;
9322;SDS011;4700;48.822;9.270;2023-05-13T12:54:04;236.90;;;177.37;;
9322;SDS011;4700;48.822;9.270;2023-05-13T12:56:51;238.17;;;182.13;;
9322;SDS011;4700;48.822;9.270;2023-05-13T12:59:36;231.70;;;202.23;;
9322;SDS011;4700;48.822;9.270;2023-05-13T13:02:22;222.13;;;194.30;;
9322;SDS011;4700;48.822;9.270;2023-05-13T13:05:10;225.27;;;198.60;;
9322;SDS011;4700;48.822;9.270;2023-05-13T13:07:55;221.43;;;198.27;;
9322;SDS011;4700;48.822;9.270;2023-05-13T13:10:41;229.47;;;205.63;;
9322;SDS011;4700;48.822;9.270;2023-05-13T13:13:26;216.00;;;194.10;;
9322;SDS011;4700;48.822;9.270;2023-05-13T13:16:12;226.90;;;204.03;;
9322;SDS011;4700;48.822;9.270;2023-05-13T13:18:58;216.27;;;195.07;;
9322;SDS011;4700;48.822;9.270;2023-05-13T13:21:45;252.17;;;233.07;;
9322;SDS011;4700;48.822;9.270;2023-05-13T13:26:56;220.27;;;201.17;;
9322;SDS011;4700;48.822;9.270;2023-05-13T13:29:42;243.07;;;225.60;;
9322;SDS011;4700;48.822;9.270;2023-05-13T13:32:28;214.10;;;195.00;;
9322;SDS011;4700;48.822;9.270;2023-05-13T13:35:18;202.23;;;183.43;;
9322;SDS011;4700;48.822;9.270;2023-05-13T13:38:05;221.93;;;202.33;;
9322;SDS011;4700;48.822;9.270;2023-05-13T13:40:51;229.40;;;209.77;;
9322;SDS011;4700;48.822;9.270;2023-05-13T13:43:36;247.30;;;228.67;;
9322;SDS011;4700;48.822;9.270;2023-05-13T13:46:22;234.20;;;215.93;;
9322;SDS011;4700;48.822;9.270;2023-05-13T13:49:08;249.90;;;231.90;;
9322;SDS011;4700;48.822;9.270;2023-05-13T13:51:54;243.23;;;222.90;;
9322;SDS011;4700;48.822;9.270;2023-05-13T13:54:41;229.30;;;211.27;;
9322;SDS011;4700;48.822;9.270;2023-05-13T13:57:26;229.33;;;208.87;;
9322;SDS011;4700;48.822;9.270;2023-05-13T14:00:12;226.73;;;205.67;;
9322;SDS011;4700;48.822;9.270;2023-05-13T14:02:59;222.43;;;201.50;;
9322;SDS011;4700;48.822;9.270;2023-05-13T14:05:45;235.17;;;218.20;;
9322;SDS011;4700;48.822;9.270;2023-05-13T14:08:32;221.70;;;204.43;;
9322;SDS011;4700;48.822;9.270;2023-05-13T14:11:19;219.17;;;201.80;;
9322;SDS011;4700;48.822;9.270;2023-05-13T14:14:08;257.23;;;239.40;;
9322;SDS011;4700;48.822;9.270;2023-05-13T14:16:54;216.70;;;199.37;;
9322;SDS011;4700;48.822;9.270;2023-05-13T14:19:39;255.47;;;237.37;;
9322;SDS011;4700;48.822;9.270;2023-05-13T14:22:25;204.50;;;182.10;;
9322;SDS011;4700;48.822;9.270;2023-05-13T14:25:11;204.00;;;182.13;;
9322;SDS011;4700;48.822;9.270;2023-05-13T14:27:58;215.70;;;193.43;;
9322;SDS011;4700;48.822;9.270;2023-05-13T14:30:44;210.30;;;185.73;;
9322;SDS011;4700;48.822;9.270;2023-05-13T14:33:30;198.33;;;171.93;;
9322;SDS011;4700;48.822;9.270;2023-05-13T14:36:15;225.50;;;201.47;;
9322;SDS011;4700;48.822;9.270;2023-05-13T14:39:03;223.23;;;201.70;;
9322;SDS011;4700;48.822;9.270;2023-05-13T14:41:50;222.50;;;199.50;;
9322;SDS011;4700;48.822;9.270;2023-05-13T14:44:37;215.20;;;192.60;;
9322;SDS011;4700;48.822;9.270;2023-05-13T14:47:24;215.60;;;191.50;;
9322;SDS011;4700;48.822;9.270;2023-05-13T14:50:10;209.17;;;185.57;;
9322;SDS011;4700;48.822;9.270;2023-05-13T14:53:00;231.27;;;212.83;;
9322;SDS011;4700;48.822;9.270;2023-05-13T14:55:45;246.13;;;227.17;;
9322;SDS011;4700;48.822;9.270;2023-05-13T14:58:31;255.13;;;236.97;;
9322;SDS011;4700;48.822;9.270;2023-05-13T15:01:19;251.27;;;232.00;;
9322;SDS011;4700;48.822;9.270;2023-05-13T15:04:04;241.23;;;223.67;;
9322;SDS011;4700;48.822;9.270;2023-05-13T15:06:50;201.17;;;180.87;;
9322;SDS011;4700;48.822;9.270;2023-05-13T15:09:36;247.57;;;229.23;;
9322;SDS011;4700;48.822;9.270;2023-05-13T15:12:21;247.50;;;228.07;;
9322;SDS011;4700;48.822;9.270;2023-05-13T15:15:07;261.30;;;241.20;;
9322;SDS011;4700;48.822;9.270;2023-05-13T15:17:55;217.80;;;194.20;;
9322;SDS011;4700;48.822;9.270;2023-05-13T15:20:41;255.67;;;235.07;;
9322;SDS011;4700;48.822;9.270;2023-05-13T15:23:28;258.83;;;238.77;;
9322;SDS011;4700;48.822;9.270;2023-05-13T15:26:14;257.97;;;237.60;;
9322;SDS011;4700;48.822;9.270;2023-05-13T15:28:59;228.57;;;206.27;;
9322;SDS011;4700;48.822;9.270;2023-05-13T15:31:46;238.83;;;220.27;;
9322;SDS011;4700;48.822;9.270;2023-05-13T15:34:35;251.47;;;232.40;;
9322;SDS011;4700;48.822;9.270;2023-05-13T15:37:21;217.13;;;194.37;;
9322;SDS011;4700;48.822;9.270;2023-05-13T15:40:07;218.90;;;193.20;;
9322;SDS011;4700;48.822;9.270;2023-05-13T15:42:53;216.03;;;174.80;;
9322;SDS011;4700;48.822;9.270;2023-05-13T15:45:39;228.43;;;192.97;;
9322;SDS011;4700;48.822;9.270;2023-05-13T15:48:25;220.80;;;183.73;;
9322;SDS011;4700;48.822;9.270;2023-05-13T15:51:14;212.77;;;169.50;;
9322;SDS011;4700;48.822;9.270;2023-05-13T15:54:01;208.73;;;163.97;;
9322;SDS011;4700;48.822;9.270;2023-05-13T15:56:49;216.37;;;176.50;;
9322;SDS011;4700;48.822;9.270;2023-05-13T15:59:35;222.23;;;184.80;;
9322;SDS011;4700;48.822;9.270;2023-05-13T16:02:20;235.40;;;200.03;;
9322;SDS011;4700;48.822;9.270;2023-05-13T16:05:06;228.77;;;195.20;;
9322;SDS011;4700;48.822;9.270;2023-05-13T16:07:55;232.53;;;180.97;;
9322;SDS011;4700;48.822;9.270;2023-05-13T16:10:41;236.00;;;180.97;;
9322;SDS011;4700;48.822;9.270;2023-05-13T16:13:27;228.30;;;160.43;;
9322;SDS011;4700;48.822;9.270;2023-05-13T16:16:12;240.87;;;177.03;;
9322;SDS011;4700;48.822;9.270;2023-05-13T16:18:58;228.23;;;156.17;;
9322;SDS011;4700;48.822;9.270;2023-05-13T16:21:46;232.97;;;153.70;;
9322;SDS011;4700;48.822;9.270;2023-05-13T16:24:33;233.07;;;152.47;;